sensor_id;sensor_type;location;lat;lon;timestamp;temperature;humidity
16825;DHT22;8529;48.108;-1.706;2022-11-03T00:00:11;14.30;99.90
16825;DHT22;8529;48.108;-1.706;2022-11-03T00:02:38;14.20;99.90
16825;DHT22;8529;48.108;-1.706;2022-11-03T00:05:05;14.30;99.90
16825;DHT22;8529;48.108;-1.706;2022-11-03T00:07:46;14.30;99.90
16825;DHT22;8529;48.108;-1.706;2022-11-03T00:10:13;14.30;99.90
16825;DHT22;8529;48.108;-1.706;2022-11-03T00:12:40;14.30;99.90
16825;DHT22;8529;48.108;-1.706;2022-11-03T00:15:08;14.30;99.90
16825;DHT22;8529;48.108;-1.706;2022-11-03T00:17:36;14.30;99.90
16825;DHT22;8529;48.108;-1.706;2022-11-03T00:20:04;14.30;99.90
16825;DHT22;8529;48.108;-1.706;2022-11-03T00:22:31;14.30;99.90
16825;DHT22;8529;48.108;-1.706;2022-11-03T00:24:58;14.30;99.90
16825;DHT22;8529;48.108;-1.706;2022-11-03T00:27:26;14.20;99.90
16825;DHT22;8529;48.108;-1.706;2022-11-03T00:29:53;14.30;99.90
16825;DHT22;8529;48.108;-1.706;2022-11-03T00:32:20;14.30;99.90
16825;DHT22;8529;48.108;-1.706;2022-11-03T00:34:48;14.30;99.90
16825;DHT22;8529;48.108;-1.706;2022-11-03T00:37:15;14.30;99.90
16825;DHT22;8529;48.108;-1.706;2022-11-03T00:39:42;14.30;99.90
16825;DHT22;8529;48.108;-1.706;2022-11-03T00:42:09;14.30;99.90
16825;DHT22;8529;48.108;-1.706;2022-11-03T00:44:36;14.30;99.90
16825;DHT22;8529;48.108;-1.706;2022-11-03T00:47:03;14.30;99.90
16825;DHT22;8529;48.108;-1.706;2022-11-03T00:49:29;14.30;99.90
16825;DHT22;8529;48.108;-1.706;2022-11-03T00:51:58;14.30;99.90
16825;DHT22;8529;48.108;-1.706;2022-11-03T00:54:25;14.30;99.90
16825;DHT22;8529;48.108;-1.706;2022-11-03T00:56:52;14.30;99.90
16825;DHT22;8529;48.108;-1.706;2022-11-03T00:59:19;14.30;99.90
16825;DHT22;8529;48.108;-1.706;2022-11-03T01:01:46;14.30;99.90
16825;DHT22;8529;48.108;-1.706;2022-11-03T01:04:13;14.30;99.90
16825;DHT22;8529;48.108;-1.706;2022-11-03T01:07:00;14.30;99.90
16825;DHT22;8529;48.108;-1.706;2022-11-03T01:09:28;14.30;99.90
16825;DHT22;8529;48.108;-1.706;2022-11-03T01:11:58;14.30;99.90
16825;DHT22;8529;48.108;-1.706;2022-11-03T01:14:27;14.30;99.90
16825;DHT22;8529;48.108;-1.706;2022-11-03T01:16:55;14.30;99.90
16825;DHT22;8529;48.108;-1.706;2022-11-03T01:19:22;14.30;99.90
16825;DHT22;8529;48.108;-1.706;2022-11-03T01:21:50;14.30;99.90
16825;DHT22;8529;48.108;-1.706;2022-11-03T01:24:18;14.30;99.90
16825;DHT22;8529;48.108;-1.706;2022-11-03T01:26:45;14.30;99.90
16825;DHT22;8529;48.108;-1.706;2022-11-03T01:29:12;14.30;99.90
16825;DHT22;8529;48.108;-1.706;2022-11-03T01:31:39;14.20;99.90
16825;DHT22;8529;48.108;-1.706;2022-11-03T01:34:11;14.20;99.90
16825;DHT22;8529;48.108;-1.706;2022-11-03T01:36:38;14.20;99.90
16825;DHT22;8529;48.108;-1.706;2022-11-03T01:39:05;14.20;99.90
16825;DHT22;8529;48.108;-1.706;2022-11-03T01:41:33;14.20;99.90
16825;DHT22;8529;48.108;-1.706;2022-11-03T01:44:29;14.20;99.90
16825;DHT22;8529;48.108;-1.706;2022-11-03T01:47:04;14.20;99.90
16825;DHT22;8529;48.108;-1.706;2022-11-03T01:49:34;14.20;99.90
16825;DHT22;8529;48.108;-1.706;2022-11-03T01:52:05;14.20;99.90
16825;DHT22;8529;48.108;-1.706;2022-11-03T01:54:35;14.20;99.90
16825;DHT22;8529;48.108;-1.706;2022-11-03T01:57:07;14.20;99.90
16825;DHT22;8529;48.108;-1.706;2022-11-03T01:59:36;14.20;99.90
16825;DHT22;8529;48.108;-1.706;2022-11-03T02:02:03;14.30;99.90
16825;DHT22;8529;48.108;-1.706;2022-11-03T02:04:32;14.20;99.90
16825;DHT22;8529;48.108;-1.706;2022-11-03T02:07:08;14.20;99.90
16825;DHT22;8529;48.108;-1.706;2022-11-03T02:09:37;14.20;99.90
16825;DHT22;8529;48.108;-1.706;2022-11-03T02:12:06;14.20;99.90
16825;DHT22;8529;48.108;-1.706;2022-11-03T02:14:37;14.30;99.90
16825;DHT22;8529;48.108;-1.706;2022-11-03T02:17:07;14.30;99.90
16825;DHT22;8529;48.108;-1.706;2022-11-03T02:19:38;14.30;99.90
16825;DHT22;8529;48.108;-1.706;2022-11-03T02:22:19;14.30;99.90
16825;DHT22;8529;48.108;-1.706;2022-11-03T02:24:52;14.30;99.90
16825;DHT22;8529;48.108;-1.706;2022-11-03T02:27:22;14.30;99.90
16825;DHT22;8529;48.108;-1.706;2022-11-03T02:29:49;14.30;99.90
16825;DHT22;8529;48.108;-1.706;2022-11-03T02:32:20;14.20;99.90
16825;DHT22;8529;48.108;-1.706;2022-11-03T02:34:52;14.20;99.90
16825;DHT22;8529;48.108;-1.706;2022-11-03T02:37:23;14.30;99.90
16825;DHT22;8529;48.108;-1.706;2022-11-03T02:39:55;14.30;99.90
16825;DHT22;8529;48.108;-1.706;2022-11-03T02:42:25;14.20;99.90
16825;DHT22;8529;48.108;-1.706;2022-11-03T02:44:54;14.20;99.90
16825;DHT22;8529;48.108;-1.706;2022-11-03T02:47:25;14.30;99.90
16825;DHT22;8529;48.108;-1.706;2022-11-03T02:49:54;14.20;99.90
16825;DHT22;8529;48.108;-1.706;2022-11-03T02:52:34;14.20;99.90
16825;DHT22;8529;48.108;-1.706;2022-11-03T02:55:05;14.20;99.90
16825;DHT22;8529;48.108;-1.706;2022-11-03T02:57:39;14.20;99.90
16825;DHT22;8529;48.108;-1.706;2022-11-03T03:00:10;14.20;99.90
16825;DHT22;8529;48.108;-1.706;2022-11-03T03:02:42;14.20;99.90
16825;DHT22;8529;48.108;-1.706;2022-11-03T03:05:12;14.20;99.90
16825;DHT22;8529;48.108;-1.706;2022-11-03T03:07:44;14.20;99.90
16825;DHT22;8529;48.108;-1.706;2022-11-03T03:10:14;14.20;99.90
16825;DHT22;8529;48.108;-1.706;2022-11-03T03:12:47;14.10;99.90
16825;DHT22;8529;48.108;-1.706;2022-11-03T03:15:16;14.10;99.90
16825;DHT22;8529;48.108;-1.706;2022-11-03T03:17:48;14.10;99.90
16825;DHT22;8529;48.108;-1.706;2022-11-03T03:20:20;14.10;99.90
16825;DHT22;8529;48.108;-1.706;2022-11-03T03:22:52;14.10;99.90
16825;DHT22;8529;48.108;-1.706;2022-11-03T03:25:24;14.00;99.90
16825;DHT22;8529;48.108;-1.706;2022-11-03T03:27:58;14.00;99.90
16825;DHT22;8529;48.108;-1.706;2022-11-03T03:30:27;14.00;99.90
16825;DHT22;8529;48.108;-1.706;2022-11-03T03:32:56;14.00;99.90
16825;DHT22;8529;48.108;-1.706;2022-11-03T03:35:27;14.00;99.90
16825;DHT22;8529;48.108;-1.706;2022-11-03T03:37:58;14.00;99.90
16825;DHT22;8529;48.108;-1.706;2022-11-03T03:40:30;14.00;99.90
16825;DHT22;8529;48.108;-1.706;2022-11-03T03:43:00;14.00;99.90
16825;DHT22;8529;48.108;-1.706;2022-11-03T03:45:29;14.10;99.90
16825;DHT22;8529;48.108;-1.706;2022-11-03T03:47:57;14.10;99.90
16825;DHT22;8529;48.108;-1.706;2022-11-03T03:50:28;14.10;99.90
16825;DHT22;8529;48.108;-1.706;2022-11-03T03:52:58;14.10;99.90
16825;DHT22;8529;48.108;-1.706;2022-11-03T03:55:32;14.10;99.90
16825;DHT22;8529;48.108;-1.706;2022-11-03T03:58:01;14.10;99.90
16825;DHT22;8529;48.108;-1.706;2022-11-03T04:00:28;14.10;99.90
16825;DHT22;8529;48.108;-1.706;2022-11-03T04:02:56;14.10;99.90
16825;DHT22;8529;48.108;-1.706;2022-11-03T04:05:23;14.10;99.90
16825;DHT22;8529;48.108;-1.706;2022-11-03T04:07:50;14.10;99.90
16825;DHT22;8529;48.108;-1.706;2022-11-03T04:10:19;14.10;99.90
16825;DHT22;8529;48.108;-1.706;2022-11-03T04:12:48;14.10;99.90
16825;DHT22;8529;48.108;-1.706;2022-11-03T04:15:34;14.10;99.90
16825;DHT22;8529;48.108;-1.706;2022-11-03T04:18:21;14.10;99.90
16825;DHT22;8529;48.108;-1.706;2022-11-03T04:21:10;14.10;99.90
16825;DHT22;8529;48.108;-1.706;2022-11-03T04:23:55;14.10;99.90
16825;DHT22;8529;48.108;-1.706;2022-11-03T04:26:22;14.10;99.90
16825;DHT22;8529;48.108;-1.706;2022-11-03T04:28:51;14.10;99.90
16825;DHT22;8529;48.108;-1.706;2022-11-03T04:31:20;14.10;99.90
16825;DHT22;8529;48.108;-1.706;2022-11-03T04:33:48;14.10;99.90
16825;DHT22;8529;48.108;-1.706;2022-11-03T04:36:17;14.10;99.90
16825;DHT22;8529;48.108;-1.706;2022-11-03T04:38:45;14.10;99.90
16825;DHT22;8529;48.108;-1.706;2022-11-03T04:41:15;14.10;99.90
16825;DHT22;8529;48.108;-1.706;2022-11-03T04:43:43;14.10;99.90
16825;DHT22;8529;48.108;-1.706;2022-11-03T04:46:12;14.10;99.90
16825;DHT22;8529;48.108;-1.706;2022-11-03T04:48:41;14.10;99.90
16825;DHT22;8529;48.108;-1.706;2022-11-03T04:51:13;14.10;99.90
16825;DHT22;8529;48.108;-1.706;2022-11-03T04:53:45;14.10;99.90
16825;DHT22;8529;48.108;-1.706;2022-11-03T04:56:16;14.10;99.90
16825;DHT22;8529;48.108;-1.706;2022-11-03T04:58:45;14.10;99.90
16825;DHT22;8529;48.108;-1.706;2022-11-03T05:01:14;14.10;99.90
16825;DHT22;8529;48.108;-1.706;2022-11-03T05:03:44;14.10;99.90
16825;DHT22;8529;48.108;-1.706;2022-11-03T05:06:14;14.10;99.90
16825;DHT22;8529;48.108;-1.706;2022-11-03T05:08:44;14.10;99.90
16825;DHT22;8529;48.108;-1.706;2022-11-03T05:11:16;14.10;99.90
16825;DHT22;8529;48.108;-1.706;2022-11-03T05:13:44;14.00;99.90
16825;DHT22;8529;48.108;-1.706;2022-11-03T05:16:11;14.10;99.90
16825;DHT22;8529;48.108;-1.706;2022-11-03T05:18:43;14.00;99.90
16825;DHT22;8529;48.108;-1.706;2022-11-03T05:21:13;14.10;99.90
16825;DHT22;8529;48.108;-1.706;2022-11-03T05:23:43;14.00;99.90
16825;DHT22;8529;48.108;-1.706;2022-11-03T05:26:14;14.00;99.90
16825;DHT22;8529;48.108;-1.706;2022-11-03T05:28:44;14.00;99.90
16825;DHT22;8529;48.108;-1.706;2022-11-03T05:31:23;14.00;99.90
16825;DHT22;8529;48.108;-1.706;2022-11-03T05:33:56;14.00;99.90
16825;DHT22;8529;48.108;-1.706;2022-11-03T05:36:25;14.00;99.90
16825;DHT22;8529;48.108;-1.706;2022-11-03T05:38:55;14.00;99.90
16825;DHT22;8529;48.108;-1.706;2022-11-03T05:41:25;14.00;99.90
16825;DHT22;8529;48.108;-1.706;2022-11-03T05:43:55;14.00;99.90
16825;DHT22;8529;48.108;-1.706;2022-11-03T05:46:24;14.00;99.90
16825;DHT22;8529;48.108;-1.706;2022-11-03T05:48:54;14.00;99.90
16825;DHT22;8529;48.108;-1.706;2022-11-03T05:51:24;14.00;99.90
16825;DHT22;8529;48.108;-1.706;2022-11-03T05:53:56;14.00;99.90
16825;DHT22;8529;48.108;-1.706;2022-11-03T05:56:24;14.00;99.90
16825;DHT22;8529;48.108;-1.706;2022-11-03T05:58:52;13.90;99.90
16825;DHT22;8529;48.108;-1.706;2022-11-03T06:01:25;14.00;99.90
16825;DHT22;8529;48.108;-1.706;2022-11-03T06:03:55;14.00;99.90
16825;DHT22;8529;48.108;-1.706;2022-11-03T06:06:26;14.00;99.90
16825;DHT22;8529;48.108;-1.706;2022-11-03T06:08:55;14.00;99.90
16825;DHT22;8529;48.108;-1.706;2022-11-03T06:11:26;14.00;99.90
16825;DHT22;8529;48.108;-1.706;2022-11-03T06:13:55;14.00;99.90
16825;DHT22;8529;48.108;-1.706;2022-11-03T06:16:35;14.00;99.90
16825;DHT22;8529;48.108;-1.706;2022-11-03T06:19:22;14.00;99.90
16825;DHT22;8529;48.108;-1.706;2022-11-03T06:21:52;14.00;99.90
16825;DHT22;8529;48.108;-1.706;2022-11-03T06:24:23;14.00;99.90
16825;DHT22;8529;48.108;-1.706;2022-11-03T06:26:50;14.00;99.90
16825;DHT22;8529;48.108;-1.706;2022-11-03T06:29:19;14.00;99.90
16825;DHT22;8529;48.108;-1.706;2022-11-03T06:31:48;14.00;99.90
16825;DHT22;8529;48.108;-1.706;2022-11-03T06:34:34;14.00;99.90
16825;DHT22;8529;48.108;-1.706;2022-11-03T06:37:17;14.00;99.90
16825;DHT22;8529;48.108;-1.706;2022-11-03T06:39:45;14.00;99.90
16825;DHT22;8529;48.108;-1.706;2022-11-03T06:42:13;14.00;99.90
16825;DHT22;8529;48.108;-1.706;2022-11-03T06:44:43;14.00;99.90
16825;DHT22;8529;48.108;-1.706;2022-11-03T06:47:19;14.00;99.90
16825;DHT22;8529;48.108;-1.706;2022-11-03T06:49:50;14.00;99.90
16825;DHT22;8529;48.108;-1.706;2022-11-03T06:52:22;14.00;99.90
16825;DHT22;8529;48.108;-1.706;2022-11-03T06:54:53;14.00;99.90
16825;DHT22;8529;48.108;-1.706;2022-11-03T06:57:21;14.00;99.90
16825;DHT22;8529;48.108;-1.706;2022-11-03T06:59:49;14.00;99.90
16825;DHT22;8529;48.108;-1.706;2022-11-03T07:02:35;14.00;99.90
16825;DHT22;8529;48.108;-1.706;2022-11-03T07:05:17;14.00;99.90
16825;DHT22;8529;48.108;-1.706;2022-11-03T07:07:45;14.00;99.90
16825;DHT22;8529;48.108;-1.706;2022-11-03T07:10:12;14.00;99.90
16825;DHT22;8529;48.108;-1.706;2022-11-03T07:12:40;14.00;99.90
16825;DHT22;8529;48.108;-1.706;2022-11-03T07:15:18;14.00;99.90
16825;DHT22;8529;48.108;-1.706;2022-11-03T07:17:46;14.00;99.90
16825;DHT22;8529;48.108;-1.706;2022-11-03T07:20:15;14.00;99.90
16825;DHT22;8529;48.108;-1.706;2022-11-03T07:22:45;14.10;99.90
16825;DHT22;8529;48.108;-1.706;2022-11-03T07:25:15;14.10;99.90
16825;DHT22;8529;48.108;-1.706;2022-11-03T07:27:44;14.10;99.90
16825;DHT22;8529;48.108;-1.706;2022-11-03T07:30:19;14.10;99.90
16825;DHT22;8529;48.108;-1.706;2022-11-03T07:32:48;14.20;99.90
16825;DHT22;8529;48.108;-1.706;2022-11-03T07:35:29;14.20;99.90
16825;DHT22;8529;48.108;-1.706;2022-11-03T07:38:01;14.20;99.90
16825;DHT22;8529;48.108;-1.706;2022-11-03T07:40:31;14.30;99.90
16825;DHT22;8529;48.108;-1.706;2022-11-03T07:43:11;14.30;99.90
16825;DHT22;8529;48.108;-1.706;2022-11-03T07:45:41;14.30;99.90
16825;DHT22;8529;48.108;-1.706;2022-11-03T07:48:23;14.30;99.90
16825;DHT22;8529;48.108;-1.706;2022-11-03T07:50:54;14.30;99.90
16825;DHT22;8529;48.108;-1.706;2022-11-03T07:53:34;14.30;99.90
16825;DHT22;8529;48.108;-1.706;2022-11-03T07:56:12;14.30;99.90
16825;DHT22;8529;48.108;-1.706;2022-11-03T07:58:41;14.30;99.90
16825;DHT22;8529;48.108;-1.706;2022-11-03T08:01:26;14.30;99.90
16825;DHT22;8529;48.108;-1.706;2022-11-03T08:03:57;14.30;99.90
16825;DHT22;8529;48.108;-1.706;2022-11-03T08:06:27;14.30;99.90
16825;DHT22;8529;48.108;-1.706;2022-11-03T08:08:54;14.20;99.90
16825;DHT22;8529;48.108;-1.706;2022-11-03T08:11:21;14.20;99.90
16825;DHT22;8529;48.108;-1.706;2022-11-03T08:13:49;14.10;99.90
16825;DHT22;8529;48.108;-1.706;2022-11-03T08:16:16;14.10;99.90
16825;DHT22;8529;48.108;-1.706;2022-11-03T08:18:43;14.00;99.90
16825;DHT22;8529;48.108;-1.706;2022-11-03T08:21:11;14.00;99.90
16825;DHT22;8529;48.108;-1.706;2022-11-03T08:23:39;13.80;99.90
16825;DHT22;8529;48.108;-1.706;2022-11-03T08:26:07;13.60;99.90
16825;DHT22;8529;48.108;-1.706;2022-11-03T08:28:34;13.40;99.90
16825;DHT22;8529;48.108;-1.706;2022-11-03T08:31:01;13.30;99.90
16825;DHT22;8529;48.108;-1.706;2022-11-03T08:33:30;13.30;99.90
16825;DHT22;8529;48.108;-1.706;2022-11-03T08:35:57;13.20;99.90
16825;DHT22;8529;48.108;-1.706;2022-11-03T08:38:24;13.10;99.90
16825;DHT22;8529;48.108;-1.706;2022-11-03T08:40:53;13.20;99.90
16825;DHT22;8529;48.108;-1.706;2022-11-03T08:43:21;13.20;99.90
16825;DHT22;8529;48.108;-1.706;2022-11-03T08:45:48;13.20;99.90
16825;DHT22;8529;48.108;-1.706;2022-11-03T08:48:18;13.20;99.90
16825;DHT22;8529;48.108;-1.706;2022-11-03T08:50:45;13.20;99.90
16825;DHT22;8529;48.108;-1.706;2022-11-03T08:53:12;13.20;99.90
16825;DHT22;8529;48.108;-1.706;2022-11-03T08:55:39;13.20;99.90
16825;DHT22;8529;48.108;-1.706;2022-11-03T08:58:07;13.20;99.90
16825;DHT22;8529;48.108;-1.706;2022-11-03T09:00:34;13.20;99.90
16825;DHT22;8529;48.108;-1.706;2022-11-03T09:03:01;13.20;99.90
16825;DHT22;8529;48.108;-1.706;2022-11-03T09:05:28;13.20;99.90
16825;DHT22;8529;48.108;-1.706;2022-11-03T09:07:55;13.20;99.90
16825;DHT22;8529;48.108;-1.706;2022-11-03T09:10:22;13.20;99.90
16825;DHT22;8529;48.108;-1.706;2022-11-03T09:12:49;13.20;99.90
16825;DHT22;8529;48.108;-1.706;2022-11-03T09:15:18;13.20;99.90
16825;DHT22;8529;48.108;-1.706;2022-11-03T09:17:45;13.10;99.90
16825;DHT22;8529;48.108;-1.706;2022-11-03T09:20:12;13.10;99.90
16825;DHT22;8529;48.108;-1.706;2022-11-03T09:22:39;13.10;99.90
16825;DHT22;8529;48.108;-1.706;2022-11-03T09:25:06;13.10;99.90
16825;DHT22;8529;48.108;-1.706;2022-11-03T09:27:35;13.00;99.90
16825;DHT22;8529;48.108;-1.706;2022-11-03T09:30:02;13.10;99.90
16825;DHT22;8529;48.108;-1.706;2022-11-03T09:32:31;13.00;99.90
16825;DHT22;8529;48.108;-1.706;2022-11-03T09:34:58;13.00;99.90
16825;DHT22;8529;48.108;-1.706;2022-11-03T09:37:25;13.00;99.90
16825;DHT22;8529;48.108;-1.706;2022-11-03T09:39:53;13.00;99.90
16825;DHT22;8529;48.108;-1.706;2022-11-03T09:42:20;13.00;99.90
16825;DHT22;8529;48.108;-1.706;2022-11-03T09:44:47;12.90;99.90
16825;DHT22;8529;48.108;-1.706;2022-11-03T09:47:21;13.00;99.90
16825;DHT22;8529;48.108;-1.706;2022-11-03T09:49:50;12.90;99.90
16825;DHT22;8529;48.108;-1.706;2022-11-03T09:52:20;12.90;99.90
16825;DHT22;8529;48.108;-1.706;2022-11-03T09:54:48;12.90;99.90
16825;DHT22;8529;48.108;-1.706;2022-11-03T09:57:17;12.90;99.90
16825;DHT22;8529;48.108;-1.706;2022-11-03T09:59:45;12.90;99.90
16825;DHT22;8529;48.108;-1.706;2022-11-03T10:02:20;12.90;99.90
16825;DHT22;8529;48.108;-1.706;2022-11-03T10:04:47;13.00;99.90
16825;DHT22;8529;48.108;-1.706;2022-11-03T10:07:16;13.00;99.90
16825;DHT22;8529;48.108;-1.706;2022-11-03T10:09:45;13.10;99.90
16825;DHT22;8529;48.108;-1.706;2022-11-03T10:12:13;13.00;99.90
16825;DHT22;8529;48.108;-1.706;2022-11-03T10:14:40;13.10;99.90
16825;DHT22;8529;48.108;-1.706;2022-11-03T10:17:14;13.10;99.90
16825;DHT22;8529;48.108;-1.706;2022-11-03T10:19:41;13.10;99.90
16825;DHT22;8529;48.108;-1.706;2022-11-03T10:22:08;13.00;99.90
16825;DHT22;8529;48.108;-1.706;2022-11-03T10:24:36;13.10;99.90
16825;DHT22;8529;48.108;-1.706;2022-11-03T10:27:19;13.10;99.90
16825;DHT22;8529;48.108;-1.706;2022-11-03T10:30:03;13.20;99.90
16825;DHT22;8529;48.108;-1.706;2022-11-03T10:32:32;13.30;99.90
16825;DHT22;8529;48.108;-1.706;2022-11-03T10:35:00;13.30;99.90
16825;DHT22;8529;48.108;-1.706;2022-11-03T10:37:27;13.30;99.90
16825;DHT22;8529;48.108;-1.706;2022-11-03T10:39:56;13.30;99.90
16825;DHT22;8529;48.108;-1.706;2022-11-03T10:42:25;13.30;99.90
16825;DHT22;8529;48.108;-1.706;2022-11-03T10:45:08;13.30;99.90
16825;DHT22;8529;48.108;-1.706;2022-11-03T10:47:36;13.30;99.90
16825;DHT22;8529;48.108;-1.706;2022-11-03T10:50:19;13.30;99.90
16825;DHT22;8529;48.108;-1.706;2022-11-03T10:52:47;13.20;99.90
16825;DHT22;8529;48.108;-1.706;2022-11-03T10:55:16;13.20;99.90
16825;DHT22;8529;48.108;-1.706;2022-11-03T10:57:44;13.30;99.90
16825;DHT22;8529;48.108;-1.706;2022-11-03T11:00:13;13.20;99.90
16825;DHT22;8529;48.108;-1.706;2022-11-03T11:02:42;13.30;99.90
16825;DHT22;8529;48.108;-1.706;2022-11-03T11:05:13;13.30;99.90
16825;DHT22;8529;48.108;-1.706;2022-11-03T11:07:42;13.30;99.90
16825;DHT22;8529;48.108;-1.706;2022-11-03T11:10:13;13.30;99.90
16825;DHT22;8529;48.108;-1.706;2022-11-03T11:15:49;13.30;99.90
16825;DHT22;8529;48.108;-1.706;2022-11-03T11:24:58;13.50;99.90
16825;DHT22;8529;48.108;-1.706;2022-11-03T11:31:25;13.50;99.90
16825;DHT22;8529;48.108;-1.706;2022-11-03T11:37:34;13.50;99.90
16825;DHT22;8529;48.108;-1.706;2022-11-03T11:40:07;13.60;99.90
16825;DHT22;8529;48.108;-1.706;2022-11-03T11:48:49;13.70;99.90
16825;DHT22;8529;48.108;-1.706;2022-11-03T11:51:16;13.70;99.90
16825;DHT22;8529;48.108;-1.706;2022-11-03T11:53:44;13.80;99.90
16825;DHT22;8529;48.108;-1.706;2022-11-03T11:56:14;13.80;99.90
16825;DHT22;8529;48.108;-1.706;2022-11-03T11:58:42;13.90;99.90
16825;DHT22;8529;48.108;-1.706;2022-11-03T12:01:21;14.00;99.90
16825;DHT22;8529;48.108;-1.706;2022-11-03T12:03:50;14.10;99.90
16825;DHT22;8529;48.108;-1.706;2022-11-03T12:06:31;14.20;99.90
16825;DHT22;8529;48.108;-1.706;2022-11-03T12:09:04;14.20;99.90
16825;DHT22;8529;48.108;-1.706;2022-11-03T12:11:41;14.30;99.90
16825;DHT22;8529;48.108;-1.706;2022-11-03T12:14:21;14.30;99.90
16825;DHT22;8529;48.108;-1.706;2022-11-03T12:16:48;14.30;99.90
16825;DHT22;8529;48.108;-1.706;2022-11-03T12:19:33;14.30;99.90
16825;DHT22;8529;48.108;-1.706;2022-11-03T12:22:00;14.20;99.90
16825;DHT22;8529;48.108;-1.706;2022-11-03T12:24:50;14.20;99.90
16825;DHT22;8529;48.108;-1.706;2022-11-03T12:27:38;14.20;99.90
16825;DHT22;8529;48.108;-1.706;2022-11-03T12:30:12;14.10;99.90
16825;DHT22;8529;48.108;-1.706;2022-11-03T12:32:40;14.10;99.90
16825;DHT22;8529;48.108;-1.706;2022-11-03T12:35:08;14.10;99.90
16825;DHT22;8529;48.108;-1.706;2022-11-03T12:37:35;14.10;99.90
16825;DHT22;8529;48.108;-1.706;2022-11-03T12:40:05;14.10;99.90
16825;DHT22;8529;48.108;-1.706;2022-11-03T12:42:32;14.20;99.90
16825;DHT22;8529;48.108;-1.706;2022-11-03T12:44:59;14.30;99.90
16825;DHT22;8529;48.108;-1.706;2022-11-03T12:47:26;14.40;99.90
16825;DHT22;8529;48.108;-1.706;2022-11-03T12:49:53;14.50;99.90
16825;DHT22;8529;48.108;-1.706;2022-11-03T12:52:20;14.50;99.90
16825;DHT22;8529;48.108;-1.706;2022-11-03T12:54:47;14.50;99.90
16825;DHT22;8529;48.108;-1.706;2022-11-03T12:57:15;14.30;99.90
16825;DHT22;8529;48.108;-1.706;2022-11-03T12:59:42;14.10;99.90
16825;DHT22;8529;48.108;-1.706;2022-11-03T13:02:10;14.00;99.90
16825;DHT22;8529;48.108;-1.706;2022-11-03T13:04:37;13.90;99.90
16825;DHT22;8529;48.108;-1.706;2022-11-03T13:07:04;13.80;99.90
16825;DHT22;8529;48.108;-1.706;2022-11-03T13:09:31;13.80;99.90
16825;DHT22;8529;48.108;-1.706;2022-11-03T13:12:00;13.80;99.90
16825;DHT22;8529;48.108;-1.706;2022-11-03T13:15:02;13.70;99.90
16825;DHT22;8529;48.108;-1.706;2022-11-03T13:17:30;13.80;99.90
16825;DHT22;8529;48.108;-1.706;2022-11-03T13:19:57;13.90;99.90
16825;DHT22;8529;48.108;-1.706;2022-11-03T13:22:24;14.00;99.90
16825;DHT22;8529;48.108;-1.706;2022-11-03T13:24:51;14.10;99.90
16825;DHT22;8529;48.108;-1.706;2022-11-03T13:27:18;14.20;99.90
16825;DHT22;8529;48.108;-1.706;2022-11-03T13:29:45;14.20;99.90
16825;DHT22;8529;48.108;-1.706;2022-11-03T13:32:13;14.30;99.90
16825;DHT22;8529;48.108;-1.706;2022-11-03T13:34:40;14.30;99.90
16825;DHT22;8529;48.108;-1.706;2022-11-03T13:37:07;14.40;99.90
16825;DHT22;8529;48.108;-1.706;2022-11-03T13:39:34;14.40;99.90
16825;DHT22;8529;48.108;-1.706;2022-11-03T13:42:01;14.40;99.90
16825;DHT22;8529;48.108;-1.706;2022-11-03T13:44:28;14.40;99.90
16825;DHT22;8529;48.108;-1.706;2022-11-03T13:46:55;14.50;99.90
16825;DHT22;8529;48.108;-1.706;2022-11-03T13:49:23;14.60;99.90
16825;DHT22;8529;48.108;-1.706;2022-11-03T13:51:50;14.60;99.90
16825;DHT22;8529;48.108;-1.706;2022-11-03T13:54:17;14.60;99.90
16825;DHT22;8529;48.108;-1.706;2022-11-03T13:56:44;14.70;99.90
16825;DHT22;8529;48.108;-1.706;2022-11-03T13:59:11;14.70;99.90
16825;DHT22;8529;48.108;-1.706;2022-11-03T14:01:38;14.60;99.90
16825;DHT22;8529;48.108;-1.706;2022-11-03T14:04:05;14.50;99.90
16825;DHT22;8529;48.108;-1.706;2022-11-03T14:06:34;14.40;99.90
16825;DHT22;8529;48.108;-1.706;2022-11-03T14:09:01;14.30;99.90
16825;DHT22;8529;48.108;-1.706;2022-11-03T14:11:28;14.30;99.90
16825;DHT22;8529;48.108;-1.706;2022-11-03T14:14:13;14.30;99.90
16825;DHT22;8529;48.108;-1.706;2022-11-03T14:16:40;14.40;99.90
16825;DHT22;8529;48.108;-1.706;2022-11-03T14:19:07;14.50;99.90
16825;DHT22;8529;48.108;-1.706;2022-11-03T14:21:35;14.60;99.90
16825;DHT22;8529;48.108;-1.706;2022-11-03T14:24:05;14.60;99.90
16825;DHT22;8529;48.108;-1.706;2022-11-03T14:26:32;14.50;99.90
16825;DHT22;8529;48.108;-1.706;2022-11-03T14:28:59;14.50;99.90
16825;DHT22;8529;48.108;-1.706;2022-11-03T14:31:26;14.40;99.90
16825;DHT22;8529;48.108;-1.706;2022-11-03T14:33:53;14.40;99.90
16825;DHT22;8529;48.108;-1.706;2022-11-03T14:36:19;14.40;99.90
16825;DHT22;8529;48.108;-1.706;2022-11-03T14:38:48;14.40;99.90
16825;DHT22;8529;48.108;-1.706;2022-11-03T14:41:15;14.40;99.90
16825;DHT22;8529;48.108;-1.706;2022-11-03T14:44:00;14.40;99.90
16825;DHT22;8529;48.108;-1.706;2022-11-03T14:46:27;14.40;99.90
16825;DHT22;8529;48.108;-1.706;2022-11-03T14:48:54;14.40;99.90
16825;DHT22;8529;48.108;-1.706;2022-11-03T14:51:21;14.40;99.90
16825;DHT22;8529;48.108;-1.706;2022-11-03T14:53:49;14.40;99.90
16825;DHT22;8529;48.108;-1.706;2022-11-03T14:56:16;14.50;99.90
16825;DHT22;8529;48.108;-1.706;2022-11-03T14:58:43;14.50;99.90
16825;DHT22;8529;48.108;-1.706;2022-11-03T15:01:10;14.50;99.90
16825;DHT22;8529;48.108;-1.706;2022-11-03T15:03:38;14.50;99.90
16825;DHT22;8529;48.108;-1.706;2022-11-03T15:06:05;14.50;99.90
16825;DHT22;8529;48.108;-1.706;2022-11-03T15:08:32;14.40;99.90
16825;DHT22;8529;48.108;-1.706;2022-11-03T15:11:01;14.50;99.90
16825;DHT22;8529;48.108;-1.706;2022-11-03T15:13:27;14.50;99.90
16825;DHT22;8529;48.108;-1.706;2022-11-03T15:15:55;14.40;99.90
16825;DHT22;8529;48.108;-1.706;2022-11-03T15:18:22;14.30;99.90
16825;DHT22;8529;48.108;-1.706;2022-11-03T15:20:49;14.20;99.90
16825;DHT22;8529;48.108;-1.706;2022-11-03T15:23:16;14.20;99.90
16825;DHT22;8529;48.108;-1.706;2022-11-03T15:25:43;14.10;99.90
16825;DHT22;8529;48.108;-1.706;2022-11-03T15:28:11;14.00;99.90
16825;DHT22;8529;48.108;-1.706;2022-11-03T15:30:38;13.90;99.90
16825;DHT22;8529;48.108;-1.706;2022-11-03T15:33:05;13.90;99.90
16825;DHT22;8529;48.108;-1.706;2022-11-03T15:35:32;13.80;99.90
16825;DHT22;8529;48.108;-1.706;2022-11-03T15:37:59;13.80;99.90
16825;DHT22;8529;48.108;-1.706;2022-11-03T15:40:26;13.80;99.90
16825;DHT22;8529;48.108;-1.706;2022-11-03T15:42:53;13.80;99.90
16825;DHT22;8529;48.108;-1.706;2022-11-03T15:45:22;13.90;99.90
16825;DHT22;8529;48.108;-1.706;2022-11-03T15:47:49;13.90;99.90
16825;DHT22;8529;48.108;-1.706;2022-11-03T15:50:17;13.90;99.90
16825;DHT22;8529;48.108;-1.706;2022-11-03T15:52:45;13.80;99.90
16825;DHT22;8529;48.108;-1.706;2022-11-03T15:55:11;13.80;99.90
16825;DHT22;8529;48.108;-1.706;2022-11-03T15:57:38;13.80;99.90
16825;DHT22;8529;48.108;-1.706;2022-11-03T16:00:07;13.80;99.90
16825;DHT22;8529;48.108;-1.706;2022-11-03T16:02:36;13.80;99.90
16825;DHT22;8529;48.108;-1.706;2022-11-03T16:05:03;13.70;99.90
16825;DHT22;8529;48.108;-1.706;2022-11-03T16:07:30;13.70;99.90
16825;DHT22;8529;48.108;-1.706;2022-11-03T16:09:58;13.70;99.90